sensor_id;sensor_type;location;lat;lon;timestamp;pressure;altitude;pressure_sealevel;temperature;humidity
6942;BME280;3510;43.200;27.920;2023-10-09T00:01:39;101755.41;;;16.08;46.64
6942;BME280;3510;43.200;27.920;2023-10-09T00:04:08;101749.53;;;15.87;47.30
6942;BME280;3510;43.200;27.920;2023-10-09T00:06:36;101753.22;;;15.90;47.19
6942;BME280;3510;43.200;27.920;2023-10-09T00:09:03;101757.91;;;15.96;46.61
6942;BME280;3510;43.200;27.920;2023-10-09T00:11:42;101747.97;;;15.99;46.79
6942;BME280;3510;43.200;27.920;2023-10-09T00:14:11;101743.72;;;15.88;47.04
6942;BME280;3510;43.200;27.920;2023-10-09T00:16:37;101740.13;;;15.96;46.92
6942;BME280;3510;43.200;27.920;2023-10-09T00:19:12;101744.72;;;15.58;47.20
6942;BME280;3510;43.200;27.920;2023-10-09T00:21:42;101736.84;;;15.87;47.19
6942;BME280;3510;43.200;27.920;2023-10-09T00:24:09;101738.66;;;15.88;47.38
6942;BME280;3510;43.200;27.920;2023-10-09T00:26:40;101739.41;;;16.09;46.84
6942;BME280;3510;43.200;27.920;2023-10-09T00:29:12;101743.66;;;15.98;47.10
6942;BME280;3510;43.200;27.920;2023-10-09T00:31:47;101745.28;;;15.76;47.64
6942;BME280;3510;43.200;27.920;2023-10-09T00:34:20;101735.75;;;16.05;46.88
6942;BME280;3510;43.200;27.920;2023-10-09T00:36:47;101735.38;;;15.79;47.41
6942;BME280;3510;43.200;27.920;2023-10-09T00:39:16;101740.50;;;15.90;47.26
6942;BME280;3510;43.200;27.920;2023-10-09T00:41:57;101730.44;;;16.02;46.32
6942;BME280;3510;43.200;27.920;2023-10-09T00:44:27;101742.94;;;15.89;46.15
6942;BME280;3510;43.200;27.920;2023-10-09T00:47:03;101730.06;;;15.76;46.95
6942;BME280;3510;43.200;27.920;2023-10-09T00:49:47;101719.81;;;15.96;46.32
6942;BME280;3510;43.200;27.920;2023-10-09T00:52:14;101710.31;;;15.61;46.83
6942;BME280;3510;43.200;27.920;2023-10-09T00:54:48;101701.38;;;16.20;45.30
6942;BME280;3510;43.200;27.920;2023-10-09T00:57:17;101707.41;;;15.89;45.36
6942;BME280;3510;43.200;27.920;2023-10-09T00:59:52;101709.84;;;15.55;46.04
6942;BME280;3510;43.200;27.920;2023-10-09T01:02:25;101730.25;;;15.89;45.25
6942;BME280;3510;43.200;27.920;2023-10-09T01:05:00;101735.41;;;15.36;44.98
6942;BME280;3510;43.200;27.920;2023-10-09T01:07:35;101730.59;;;15.71;45.57
6942;BME280;3510;43.200;27.920;2023-10-09T01:10:03;101743.41;;;15.63;46.04
6942;BME280;3510;43.200;27.920;2023-10-09T01:12:52;101733.78;;;15.69;46.04
6942;BME280;3510;43.200;27.920;2023-10-09T01:15:21;101721.50;;;15.53;46.15
6942;BME280;3510;43.200;27.920;2023-10-09T01:18:08;101740.09;;;15.64;46.16
6942;BME280;3510;43.200;27.920;2023-10-09T01:20:36;101729.31;;;15.77;45.53
6942;BME280;3510;43.200;27.920;2023-10-09T01:23:09;101740.78;;;15.61;45.78
6942;BME280;3510;43.200;27.920;2023-10-09T01:25:36;101750.00;;;15.61;45.35
6942;BME280;3510;43.200;27.920;2023-10-09T01:28:09;101747.88;;;15.65;45.48
6942;BME280;3510;43.200;27.920;2023-10-09T01:30:35;101758.19;;;15.46;45.54
6942;BME280;3510;43.200;27.920;2023-10-09T01:33:06;101749.75;;;15.36;45.72
6942;BME280;3510;43.200;27.920;2023-10-09T01:35:37;101760.31;;;15.52;45.50
6942;BME280;3510;43.200;27.920;2023-10-09T01:38:13;101775.53;;;15.62;44.77
6942;BME280;3510;43.200;27.920;2023-10-09T01:40:40;101786.41;;;15.29;45.48
6942;BME280;3510;43.200;27.920;2023-10-09T01:43:08;101784.03;;;15.53;44.96
6942;BME280;3510;43.200;27.920;2023-10-09T01:45:35;101789.72;;;15.08;46.09
6942;BME280;3510;43.200;27.920;2023-10-09T01:48:07;101799.88;;;15.60;44.91
6942;BME280;3510;43.200;27.920;2023-10-09T01:50:34;101811.97;;;15.42;45.56
6942;BME280;3510;43.200;27.920;2023-10-09T01:53:02;101815.94;;;15.29;46.32
6942;BME280;3510;43.200;27.920;2023-10-09T01:55:32;101813.41;;;14.98;47.09
6942;BME280;3510;43.200;27.920;2023-10-09T01:58:00;101815.81;;;15.27;46.66
6942;BME280;3510;43.200;27.920;2023-10-09T02:00:30;101812.91;;;15.33;46.54
6942;BME280;3510;43.200;27.920;2023-10-09T02:03:00;101808.44;;;15.40;46.81
6942;BME280;3510;43.200;27.920;2023-10-09T02:05:30;101798.94;;;15.28;46.94
6942;BME280;3510;43.200;27.920;2023-10-09T02:07:58;101807.22;;;14.94;47.47
6942;BME280;3510;43.200;27.920;2023-10-09T02:10:27;101800.47;;;15.05;47.35
6942;BME280;3510;43.200;27.920;2023-10-09T02:12:59;101810.88;;;14.77;47.35
6942;BME280;3510;43.200;27.920;2023-10-09T02:15:31;101816.47;;;14.73;47.42
6942;BME280;3510;43.200;27.920;2023-10-09T02:18:08;101842.94;;;14.77;47.02
6942;BME280;3510;43.200;27.920;2023-10-09T02:20:43;101824.22;;;14.46;48.36
6942;BME280;3510;43.200;27.920;2023-10-09T02:23:12;101821.50;;;14.63;47.87
6942;BME280;3510;43.200;27.920;2023-10-09T02:25:39;101836.47;;;14.70;47.94
6942;BME280;3510;43.200;27.920;2023-10-09T02:28:09;101852.53;;;14.50;48.41
6942;BME280;3510;43.200;27.920;2023-10-09T02:30:42;101862.31;;;14.66;47.41
6942;BME280;3510;43.200;27.920;2023-10-09T02:33:12;101870.66;;;14.55;47.87
6942;BME280;3510;43.200;27.920;2023-10-09T02:35:43;101879.34;;;14.48;48.02
6942;BME280;3510;43.200;27.920;2023-10-09T02:38:10;101879.94;;;14.65;46.96
6942;BME280;3510;43.200;27.920;2023-10-09T02:40:39;101868.31;;;14.48;47.37
6942;BME280;3510;43.200;27.920;2023-10-09T02:43:27;101864.38;;;14.81;46.60
6942;BME280;3510;43.200;27.920;2023-10-09T02:45:56;101875.75;;;14.65;46.88
6942;BME280;3510;43.200;27.920;2023-10-09T02:48:22;101881.44;;;14.63;47.08
6942;BME280;3510;43.200;27.920;2023-10-09T02:50:51;101898.09;;;14.80;46.96
6942;BME280;3510;43.200;27.920;2023-10-09T02:53:19;101899.75;;;14.99;46.52
6942;BME280;3510;43.200;27.920;2023-10-09T02:55:54;101901.34;;;14.68;47.28
6942;BME280;3510;43.200;27.920;2023-10-09T02:58:39;101902.47;;;14.72;47.77
6942;BME280;3510;43.200;27.920;2023-10-09T03:01:09;101887.97;;;15.10;47.05
6942;BME280;3510;43.200;27.920;2023-10-09T03:03:38;101880.47;;;14.81;47.68
6942;BME280;3510;43.200;27.920;2023-10-09T03:06:06;101894.63;;;14.69;47.61
6942;BME280;3510;43.200;27.920;2023-10-09T03:08:36;101893.56;;;14.57;48.37
6942;BME280;3510;43.200;27.920;2023-10-09T03:11:03;101907.06;;;14.86;47.64
6942;BME280;3510;43.200;27.920;2023-10-09T03:13:31;101920.94;;;14.61;47.26
6942;BME280;3510;43.200;27.920;2023-10-09T03:15:59;101922.00;;;14.73;47.49
6942;BME280;3510;43.200;27.920;2023-10-09T03:18:27;101919.06;;;14.58;47.33
6942;BME280;3510;43.200;27.920;2023-10-09T03:20:53;101922.50;;;14.79;45.83
6942;BME280;3510;43.200;27.920;2023-10-09T03:23:21;101918.97;;;14.48;45.60
6942;BME280;3510;43.200;27.920;2023-10-09T03:25:48;101921.09;;;14.62;44.76
6942;BME280;3510;43.200;27.920;2023-10-09T03:28:14;101926.56;;;14.77;44.90
6942;BME280;3510;43.200;27.920;2023-10-09T03:30:41;101938.59;;;14.40;43.99
6942;BME280;3510;43.200;27.920;2023-10-09T03:33:13;101948.22;;;14.44;44.10
6942;BME280;3510;43.200;27.920;2023-10-09T03:35:41;101945.19;;;14.19;43.31
6942;BME280;3510;43.200;27.920;2023-10-09T03:38:07;101953.72;;;14.30;42.38
6942;BME280;3510;43.200;27.920;2023-10-09T03:40:40;101950.22;;;14.09;42.20
6942;BME280;3510;43.200;27.920;2023-10-09T03:43:07;101943.25;;;14.36;41.74
6942;BME280;3510;43.200;27.920;2023-10-09T03:45:35;101942.75;;;13.92;42.38
6942;BME280;3510;43.200;27.920;2023-10-09T03:48:04;101954.50;;;14.10;42.02
6942;BME280;3510;43.200;27.920;2023-10-09T03:50:37;101956.13;;;14.28;42.01
6942;BME280;3510;43.200;27.920;2023-10-09T03:53:04;101963.78;;;14.39;41.11
6942;BME280;3510;43.200;27.920;2023-10-09T03:55:38;101967.75;;;14.26;41.09
6942;BME280;3510;43.200;27.920;2023-10-09T03:58:04;101974.22;;;14.04;41.71
6942;BME280;3510;43.200;27.920;2023-10-09T04:00:32;101971.38;;;14.20;40.49
6942;BME280;3510;43.200;27.920;2023-10-09T04:03:06;101976.44;;;14.39;40.36
6942;BME280;3510;43.200;27.920;2023-10-09T04:05:38;101967.16;;;14.29;40.74
6942;BME280;3510;43.200;27.920;2023-10-09T04:08:07;101974.19;;;14.23;40.50
6942;BME280;3510;43.200;27.920;2023-10-09T04:10:41;101988.72;;;14.15;40.79
6942;BME280;3510;43.200;27.920;2023-10-09T04:13:16;101998.78;;;14.24;39.54
6942;BME280;3510;43.200;27.920;2023-10-09T04:15:47;101994.38;;;13.75;40.23
6942;BME280;3510;43.200;27.920;2023-10-09T04:18:15;101994.84;;;14.09;39.92
6942;BME280;3510;43.200;27.920;2023-10-09T04:20:54;101997.34;;;14.17;39.24
6942;BME280;3510;43.200;27.920;2023-10-09T04:23:35;101992.47;;;14.29;39.26
6942;BME280;3510;43.200;27.920;2023-10-09T04:26:21;101998.91;;;14.07;39.32
6942;BME280;3510;43.200;27.920;2023-10-09T04:28:50;102017.09;;;13.84;39.38
6942;BME280;3510;43.200;27.920;2023-10-09T04:31:18;102018.41;;;14.08;39.35
6942;BME280;3510;43.200;27.920;2023-10-09T04:33:46;102032.81;;;14.27;39.41
6942;BME280;3510;43.200;27.920;2023-10-09T04:36:20;102022.38;;;14.14;38.82
6942;BME280;3510;43.200;27.920;2023-10-09T04:38:51;102023.06;;;14.03;39.86
6942;BME280;3510;43.200;27.920;2023-10-09T04:41:40;102024.34;;;13.89;40.19
6942;BME280;3510;43.200;27.920;2023-10-09T04:44:17;102031.81;;;14.25;39.38
6942;BME280;3510;43.200;27.920;2023-10-09T04:46:44;102022.69;;;14.27;38.82
6942;BME280;3510;43.200;27.920;2023-10-09T04:49:31;102027.22;;;14.40;38.75
6942;BME280;3510;43.200;27.920;2023-10-09T04:52:15;102030.47;;;14.10;38.73
6942;BME280;3510;43.200;27.920;2023-10-09T04:54:45;102030.28;;;14.09;38.61
6942;BME280;3510;43.200;27.920;2023-10-09T04:57:20;102021.78;;;14.17;38.36
6942;BME280;3510;43.200;27.920;2023-10-09T04:59:47;102020.59;;;14.13;38.33
6942;BME280;3510;43.200;27.920;2023-10-09T05:02:13;102032.03;;;14.18;37.83
6942;BME280;3510;43.200;27.920;2023-10-09T05:04:44;102020.16;;;14.27;37.36
6942;BME280;3510;43.200;27.920;2023-10-09T05:07:13;102030.50;;;14.01;38.33
6942;BME280;3510;43.200;27.920;2023-10-09T05:09:52;102024.44;;;14.18;38.32
6942;BME280;3510;43.200;27.920;2023-10-09T05:12:50;102050.16;;;14.04;38.90
6942;BME280;3510;43.200;27.920;2023-10-09T05:15:23;102051.72;;;14.12;39.19
6942;BME280;3510;43.200;27.920;2023-10-09T05:17:54;102063.66;;;13.86;39.49
6942;BME280;3510;43.200;27.920;2023-10-09T05:20:34;102048.78;;;14.26;39.08
6942;BME280;3510;43.200;27.920;2023-10-09T05:23:11;102055.91;;;14.12;38.75
6942;BME280;3510;43.200;27.920;2023-10-09T05:25:50;102053.72;;;14.06;39.11
6942;BME280;3510;43.200;27.920;2023-10-09T05:28:21;102056.66;;;14.29;38.32
6942;BME280;3510;43.200;27.920;2023-10-09T05:30:57;102054.31;;;14.03;38.92
6942;BME280;3510;43.200;27.920;2023-10-09T05:33:33;102067.34;;;13.98;38.93
6942;BME280;3510;43.200;27.920;2023-10-09T05:36:02;102069.50;;;14.03;39.22
6942;BME280;3510;43.200;27.920;2023-10-09T05:38:56;102078.84;;;14.13;38.51
6942;BME280;3510;43.200;27.920;2023-10-09T05:41:42;102092.91;;;14.20;38.53
6942;BME280;3510;43.200;27.920;2023-10-09T05:44:23;102092.94;;;14.39;38.17
6942;BME280;3510;43.200;27.920;2023-10-09T05:47:02;102108.75;;;14.36;37.35
6942;BME280;3510;43.200;27.920;2023-10-09T05:49:42;102095.81;;;14.33;37.28
6942;BME280;3510;43.200;27.920;2023-10-09T05:52:12;102105.44;;;14.94;36.60
6942;BME280;3510;43.200;27.920;2023-10-09T05:54:52;102103.28;;;14.88;35.44
6942;BME280;3510;43.200;27.920;2023-10-09T05:57:40;102119.28;;;14.97;35.62
6942;BME280;3510;43.200;27.920;2023-10-09T06:00:21;102113.75;;;14.83;35.00
6942;BME280;3510;43.200;27.920;2023-10-09T06:03:02;102122.97;;;15.01;34.93
6942;BME280;3510;43.200;27.920;2023-10-09T06:05:42;102129.06;;;15.03;34.43
6942;BME280;3510;43.200;27.920;2023-10-09T06:08:15;102127.66;;;15.25;34.57
6942;BME280;3510;43.200;27.920;2023-10-09T06:10:50;102130.56;;;15.01;33.93
6942;BME280;3510;43.200;27.920;2023-10-09T06:13:30;102140.09;;;15.04;34.35
6942;BME280;3510;43.200;27.920;2023-10-09T06:16:05;102134.53;;;15.08;34.75
6942;BME280;3510;43.200;27.920;2023-10-09T06:18:42;102144.50;;;14.96;34.12
6942;BME280;3510;43.200;27.920;2023-10-09T06:21:19;102141.59;;;15.20;33.87
6942;BME280;3510;43.200;27.920;2023-10-09T06:23:59;102147.25;;;15.57;33.30
6942;BME280;3510;43.200;27.920;2023-10-09T06:26:40;102139.53;;;14.87;33.23
6942;BME280;3510;43.200;27.920;2023-10-09T06:29:19;102150.19;;;14.93;34.11
6942;BME280;3510;43.200;27.920;2023-10-09T06:34:57;102167.69;;;15.19;33.39
6942;BME280;3510;43.200;27.920;2023-10-09T06:37:41;102151.47;;;15.17;32.91
6942;BME280;3510;43.200;27.920;2023-10-09T06:40:27;102145.84;;;15.40;32.57
6942;BME280;3510;43.200;27.920;2023-10-09T06:43:08;102150.53;;;15.36;32.27
6942;BME280;3510;43.200;27.920;2023-10-09T06:45:40;102145.44;;;15.75;31.99
6942;BME280;3510;43.200;27.920;2023-10-09T06:48:21;102152.47;;;15.88;31.25
6942;BME280;3510;43.200;27.920;2023-10-09T07:14:13;102155.44;;;17.06;29.02
6942;BME280;3510;43.200;27.920;2023-10-09T07:16:53;102157.50;;;17.32;29.95
6942;BME280;3510;43.200;27.920;2023-10-09T07:19:25;102150.81;;;17.12;29.48
6942;BME280;3510;43.200;27.920;2023-10-09T07:22:00;102145.19;;;16.84;27.76
6942;BME280;3510;43.200;27.920;2023-10-09T07:24:28;102148.38;;;16.82;28.88
6942;BME280;3510;43.200;27.920;2023-10-09T07:27:09;102161.06;;;17.24;27.82
6942;BME280;3510;43.200;27.920;2023-10-09T07:47:12;102144.03;;;18.11;27.84
6942;BME280;3510;43.200;27.920;2023-10-09T07:49:42;102146.09;;;18.38;29.05
6942;BME280;3510;43.200;27.920;2023-10-09T07:52:14;102141.56;;;18.01;29.17
6942;BME280;3510;43.200;27.920;2023-10-09T07:54:40;102130.84;;;18.05;30.46
6942;BME280;3510;43.200;27.920;2023-10-09T07:57:21;102138.75;;;18.31;30.49
6942;BME280;3510;43.200;27.920;2023-10-09T08:00:01;102131.25;;;18.68;30.06
6942;BME280;3510;43.200;27.920;2023-10-09T08:05:26;102147.28;;;18.89;29.90
6942;BME280;3510;43.200;27.920;2023-10-09T08:07:58;102137.19;;;18.79;29.63
6942;BME280;3510;43.200;27.920;2023-10-09T08:10:45;102133.06;;;18.93;28.67
6942;BME280;3510;43.200;27.920;2023-10-09T08:13:23;102127.97;;;19.04;28.63
6942;BME280;3510;43.200;27.920;2023-10-09T08:15:56;102135.72;;;19.18;29.14
6942;BME280;3510;43.200;27.920;2023-10-09T08:18:26;102127.31;;;18.95;29.29
6942;BME280;3510;43.200;27.920;2023-10-09T08:20:58;102132.44;;;19.44;28.73
6942;BME280;3510;43.200;27.920;2023-10-09T08:23:33;102129.19;;;18.98;28.82
6942;BME280;3510;43.200;27.920;2023-10-09T08:26:13;102122.19;;;19.07;28.64
6942;BME280;3510;43.200;27.920;2023-10-09T08:28:40;102135.66;;;19.41;28.36
6942;BME280;3510;43.200;27.920;2023-10-09T08:31:08;102130.09;;;19.35;28.75
6942;BME280;3510;43.200;27.920;2023-10-09T08:33:44;102131.06;;;19.49;28.09
6942;BME280;3510;43.200;27.920;2023-10-09T08:36:11;102127.16;;;19.05;28.55
6942;BME280;3510;43.200;27.920;2023-10-09T08:38:40;102128.78;;;19.40;28.17
6942;BME280;3510;43.200;27.920;2023-10-09T08:41:08;102131.72;;;18.98;29.19
6942;BME280;3510;43.200;27.920;2023-10-09T08:43:51;102132.19;;;19.52;29.18
6942;BME280;3510;43.200;27.920;2023-10-09T08:46:19;102107.50;;;19.65;29.44
6942;BME280;3510;43.200;27.920;2023-10-09T08:48:48;102118.91;;;19.95;28.62
6942;BME280;3510;43.200;27.920;2023-10-09T08:51:18;102112.41;;;20.25;28.70
6942;BME280;3510;43.200;27.920;2023-10-09T08:53:45;102121.59;;;20.48;28.88
6942;BME280;3510;43.200;27.920;2023-10-09T08:56:13;102101.56;;;20.16;27.57
6942;BME280;3510;43.200;27.920;2023-10-09T08:58:50;102117.59;;;20.51;27.95
6942;BME280;3510;43.200;27.920;2023-10-09T09:01:18;102128.19;;;20.58;28.11
6942;BME280;3510;43.200;27.920;2023-10-09T09:03:47;102121.59;;;20.10;28.17
6942;BME280;3510;43.200;27.920;2023-10-09T09:06:16;102116.75;;;20.39;27.83
6942;BME280;3510;43.200;27.920;2023-10-09T09:08:46;102118.53;;;20.40;27.47
6942;BME280;3510;43.200;27.920;2023-10-09T09:11:14;102090.75;;;19.56;28.33
6942;BME280;3510;43.200;27.920;2023-10-09T09:13:44;102117.16;;;19.57;28.72
6942;BME280;3510;43.200;27.920;2023-10-09T09:16:19;102122.06;;;19.54;29.22
6942;BME280;3510;43.200;27.920;2023-10-09T09:18:52;102112.31;;;19.48;29.63
6942;BME280;3510;43.200;27.920;2023-10-09T09:21:26;102108.16;;;19.74;28.91
6942;BME280;3510;43.200;27.920;2023-10-09T09:23:56;102104.22;;;19.79;29.03
6942;BME280;3510;43.200;27.920;2023-10-09T09:26:34;102090.13;;;19.72;29.28
6942;BME280;3510;43.200;27.920;2023-10-09T09:29:05;102077.66;;;19.64;29.26
6942;BME280;3510;43.200;27.920;2023-10-09T09:31:33;102080.09;;;20.00;28.99
6942;BME280;3510;43.200;27.920;2023-10-09T09:34:04;102077.09;;;19.56;30.05
6942;BME280;3510;43.200;27.920;2023-10-09T09:36:49;102085.38;;;19.90;29.33
6942;BME280;3510;43.200;27.920;2023-10-09T09:39:23;102089.25;;;19.72;30.36
6942;BME280;3510;43.200;27.920;2023-10-09T09:42:05;102066.94;;;19.07;30.21
6942;BME280;3510;43.200;27.920;2023-10-09T09:44:39;102066.22;;;19.22;30.22
6942;BME280;3510;43.200;27.920;2023-10-09T09:47:12;102078.28;;;19.73;29.73
6942;BME280;3510;43.200;27.920;2023-10-09T09:49:49;102055.84;;;19.69;29.79
6942;BME280;3510;43.200;27.920;2023-10-09T09:52:26;102064.22;;;20.18;28.64
6942;BME280;3510;43.200;27.920;2023-10-09T09:54:54;102056.41;;;20.54;29.59
6942;BME280;3510;43.200;27.920;2023-10-09T09:57:24;102048.69;;;20.68;28.07
6942;BME280;3510;43.200;27.920;2023-10-09T09:59:53;102029.13;;;20.68;28.33
6942;BME280;3510;43.200;27.920;2023-10-09T10:02:28;102049.56;;;20.42;27.76
6942;BME280;3510;43.200;27.920;2023-10-09T10:05:02;102022.56;;;20.59;28.28
6942;BME280;3510;43.200;27.920;2023-10-09T10:07:32;102038.66;;;20.84;28.69
6942;BME280;3510;43.200;27.920;2023-10-09T10:10:37;102025.28;;;20.35;27.52
6942;BME280;3510;43.200;27.920;2023-10-09T10:13:13;102011.91;;;20.66;28.00
6942;BME280;3510;43.200;27.920;2023-10-09T10:15:58;102012.13;;;20.97;27.19
6942;BME280;3510;43.200;27.920;2023-10-09T10:18:30;102024.03;;;21.38;25.81
6942;BME280;3510;43.200;27.920;2023-10-09T10:21:10;102012.50;;;21.59;25.91
6942;BME280;3510;43.200;27.920;2023-10-09T10:23:42;102016.13;;;22.07;25.31
6942;BME280;3510;43.200;27.920;2023-10-09T10:26:22;101999.16;;;21.65;26.04
6942;BME280;3510;43.200;27.920;2023-10-09T10:31:54;101990.81;;;21.98;25.97
6942;BME280;3510;43.200;27.920;2023-10-09T10:36:49;101991.19;;;21.60;27.08
6942;BME280;3510;43.200;27.920;2023-10-09T10:39:18;102000.81;;;20.93;27.18
6942;BME280;3510;43.200;27.920;2023-10-09T10:42:06;101988.44;;;20.86;27.41
6942;BME280;3510;43.200;27.920;2023-10-09T10:44:35;101944.19;;;20.06;28.55
6942;BME280;3510;43.200;27.920;2023-10-09T10:47:04;101964.41;;;20.56;28.13
6942;BME280;3510;43.200;27.920;2023-10-09T10:49:43;101985.34;;;20.64;27.87
6942;BME280;3510;43.200;27.920;2023-10-09T10:52:20;101959.38;;;20.58;27.85
6942;BME280;3510;43.200;27.920;2023-10-09T10:54:47;101970.09;;;19.86;28.59
6942;BME280;3510;43.200;27.920;2023-10-09T10:57:35;101943.66;;;19.98;28.42
6942;BME280;3510;43.200;27.920;2023-10-09T11:00:19;101941.13;;;19.85;29.08
6942;BME280;3510;43.200;27.920;2023-10-09T11:03:00;101951.84;;;19.93;29.24
6942;BME280;3510;43.200;27.920;2023-10-09T11:05:41;101946.63;;;19.91;29.39
6942;BME280;3510;43.200;27.920;2023-10-09T11:08:10;101950.84;;;20.17;29.43
6942;BME280;3510;43.200;27.920;2023-10-09T11:10:37;101917.72;;;20.19;28.51
6942;BME280;3510;43.200;27.920;2023-10-09T11:13:22;101913.56;;;20.34;29.03
6942;BME280;3510;43.200;27.920;2023-10-09T11:15:56;101933.16;;;20.75;28.61
6942;BME280;3510;43.200;27.920;2023-10-09T11:18:41;101896.84;;;20.26;28.26
6942;BME280;3510;43.200;27.920;2023-10-09T11:21:13;101918.31;;;19.88;28.79
6942;BME280;3510;43.200;27.920;2023-10-09T11:23:54;101924.97;;;20.26;29.12
6942;BME280;3510;43.200;27.920;2023-10-09T11:26:25;101936.44;;;20.46;28.18
6942;BME280;3510;43.200;27.920;2023-10-09T11:29:09;101928.66;;;20.58;27.87
6942;BME280;3510;43.200;27.920;2023-10-09T11:32:03;101926.13;;;20.31;27.95
6942;BME280;3510;43.200;27.920;2023-10-09T11:34:31;101920.25;;;20.32;28.32
6942;BME280;3510;43.200;27.920;2023-10-09T11:37:01;101917.38;;;20.41;28.74
6942;BME280;3510;43.200;27.920;2023-10-09T11:39:30;101913.34;;;20.44;28.12
6942;BME280;3510;43.200;27.920;2023-10-09T11:42:01;101902.75;;;20.51;27.94
6942;BME280;3510;43.200;27.920;2023-10-09T11:44:39;101905.19;;;20.50;28.31
6942;BME280;3510;43.200;27.920;2023-10-09T11:47:07;101882.47;;;20.54;28.84
6942;BME280;3510;43.200;27.920;2023-10-09T11:49:50;101874.84;;;20.15;28.24
6942;BME280;3510;43.200;27.920;2023-10-09T11:52:55;101890.22;;;20.43;28.51
6942;BME280;3510;43.200;27.920;2023-10-09T11:55:36;101856.75;;;20.25;28.21
6942;BME280;3510;43.200;27.920;2023-10-09T11:58:03;101882.53;;;20.43;28.54
6942;BME280;3510;43.200;27.920;2023-10-09T12:00:32;101877.91;;;20.64;28.16
6942;BME280;3510;43.200;27.920;2023-10-09T12:03:10;101842.50;;;20.02;29.25
6942;BME280;3510;43.200;27.920;2023-10-09T12:05:39;101834.56;;;20.39;29.42
6942;BME280;3510;43.200;27.920;2023-10-09T12:08:10;101865.44;;;20.00;29.91
6942;BME280;3510;43.200;27.920;2023-10-09T12:10:39;101825.63;;;20.04;29.33
6942;BME280;3510;43.200;27.920;2023-10-09T12:13:06;101849.06;;;20.66;29.55
6942;BME280;3510;43.200;27.920;2023-10-09T12:15:34;101853.41;;;20.54;29.99
6942;BME280;3510;43.200;27.920;2023-10-09T12:18:06;101841.25;;;20.50;29.95
6942;BME280;3510;43.200;27.920;2023-10-09T12:20:41;101812.72;;;20.72;29.54
6942;BME280;3510;43.200;27.920;2023-10-09T12:23:13;101813.69;;;20.59;29.54
6942;BME280;3510;43.200;27.920;2023-10-09T12:25:54;101806.34;;;20.65;29.84
6942;BME280;3510;43.200;27.920;2023-10-09T12:28:22;101816.88;;;20.70;30.29
6942;BME280;3510;43.200;27.920;2023-10-09T12:30:50;101812.97;;;20.62;30.40
6942;BME280;3510;43.200;27.920;2023-10-09T12:33:18;101807.50;;;20.42;30.02
6942;BME280;3510;43.200;27.920;2023-10-09T12:35:51;101804.63;;;20.23;31.53
6942;BME280;3510;43.200;27.920;2023-10-09T12:38:18;101812.69;;;20.16;31.77
6942;BME280;3510;43.200;27.920;2023-10-09T12:40:48;101776.41;;;19.27;31.53
6942;BME280;3510;43.200;27.920;2023-10-09T12:43:19;101798.59;;;19.28;31.50
6942;BME280;3510;43.200;27.920;2023-10-09T12:45:47;101799.19;;;19.90;32.37
6942;BME280;3510;43.200;27.920;2023-10-09T12:48:15;101793.47;;;20.08;32.98
6942;BME280;3510;43.200;27.920;2023-10-09T12:50:42;101793.88;;;20.00;33.54
6942;BME280;3510;43.200;27.920;2023-10-09T12:53:10;101758.53;;;19.80;32.62
6942;BME280;3510;43.200;27.920;2023-10-09T12:55:43;101751.63;;;19.92;32.26
6942;BME280;3510;43.200;27.920;2023-10-09T12:58:11;101788.19;;;20.33;31.57
6942;BME280;3510;43.200;27.920;2023-10-09T13:00:42;101773.06;;;20.50;31.35
6942;BME280;3510;43.200;27.920;2023-10-09T13:03:16;101735.81;;;20.41;31.37
6942;BME280;3510;43.200;27.920;2023-10-09T13:05:45;101760.69;;;20.43;30.96
6942;BME280;3510;43.200;27.920;2023-10-09T13:08:20;101754.19;;;19.92;31.04
6942;BME280;3510;43.200;27.920;2023-10-09T13:10:50;101753.22;;;19.50;32.80
6942;BME280;3510;43.200;27.920;2023-10-09T13:13:25;101767.50;;;19.73;32.24
6942;BME280;3510;43.200;27.920;2023-10-09T13:16:05;101756.38;;;19.59;33.05
6942;BME280;3510;43.200;27.920;2023-10-09T13:18:34;101756.53;;;20.02;31.98
6942;BME280;3510;43.200;27.920;2023-10-09T13:21:01;101711.84;;;19.82;32.86
6942;BME280;3510;43.200;27.920;2023-10-09T13:23:42;101748.19;;;20.48;32.34
6942;BME280;3510;43.200;27.920;2023-10-09T13:26:12;101736.66;;;20.26;32.74
6942;BME280;3510;43.200;27.920;2023-10-09T13:28:54;101732.13;;;20.50;31.45
6942;BME280;3510;43.200;27.920;2023-10-09T13:31:23;101727.75;;;20.63;31.51
6942;BME280;3510;43.200;27.920;2023-10-09T13:33:53;101728.09;;;20.69;31.55
6942;BME280;3510;43.200;27.920;2023-10-09T13:36:21;101718.34;;;20.62;32.02
6942;BME280;3510;43.200;27.920;2023-10-09T13:38:57;101717.09;;;20.27;31.67
6942;BME280;3510;43.200;27.920;2023-10-09T13:41:37;101686.47;;;19.99;32.03
6942;BME280;3510;43.200;27.920;2023-10-09T13:44:07;101702.06;;;20.03;32.08
6942;BME280;3510;43.200;27.920;2023-10-09T13:46:35;101707.19;;;20.03;32.14
6942;BME280;3510;43.200;27.920;2023-10-09T13:49:07;101710.91;;;20.23;32.80
6942;BME280;3510;43.200;27.920;2023-10-09T13:51:38;101685.09;;;20.19;32.70
6942;BME280;3510;43.200;27.920;2023-10-09T13:54:09;101701.41;;;20.36;33.21
6942;BME280;3510;43.200;27.920;2023-10-09T13:56:43;101692.50;;;20.29;34.09
6942;BME280;3510;43.200;27.920;2023-10-09T13:59:10;101691.91;;;20.33;33.05
6942;BME280;3510;43.200;27.920;2023-10-09T14:01:37;101550.31;;;19.02;34.95
6942;BME280;3510;43.200;27.920;2023-10-09T14:04:05;101695.47;;;20.07;35.15
6942;BME280;3510;43.200;27.920;2023-10-09T14:06:34;101689.28;;;20.03;34.99
6942;BME280;3510;43.200;27.920;2023-10-09T14:09:03;101671.84;;;19.83;36.06
6942;BME280;3510;43.200;27.920;2023-10-09T14:11:33;101685.81;;;19.88;35.71
6942;BME280;3510;43.200;27.920;2023-10-09T14:14:03;101679.78;;;19.73;35.43
6942;BME280;3510;43.200;27.920;2023-10-09T14:16:35;101669.91;;;19.38;35.63
6942;BME280;3510;43.200;27.920;2023-10-09T14:19:03;101674.16;;;19.65;34.39
6942;BME280;3510;43.200;27.920;2023-10-09T14:21:34;101666.81;;;19.56;35.44
6942;BME280;3510;43.200;27.920;2023-10-09T14:24:03;101671.63;;;19.65;36.02